createdAt,value
2022-11-05T00:00:37.380Z,3.60
2022-11-05T00:03:23.582Z,4.30
2022-11-05T00:06:12.649Z,3.30
2022-11-05T00:08:59.472Z,2.20
2022-11-05T00:11:42.017Z,2.40
2022-11-05T00:14:28.323Z,2.67
2022-11-05T00:16:58.053Z,2.60
2022-11-05T00:19:26.561Z,3.00
2022-11-05T00:22:12.293Z,2.87
2022-11-05T00:24:58.496Z,3.00
2022-11-05T00:27:26.993Z,3.10
2022-11-05T00:29:55.437Z,3.77
2022-11-05T00:32:26.121Z,4.40
2022-11-05T00:34:54.576Z,3.50
2022-11-05T00:37:23.007Z,3.40
2022-11-05T00:39:51.435Z,3.50
2022-11-05T00:42:37.128Z,3.53
2022-11-05T00:45:07.191Z,3.80
2022-11-05T00:47:54.683Z,3.60
2022-11-05T00:50:24.175Z,4.03
2022-11-05T00:53:00.471Z,3.83
2022-11-05T00:55:35.043Z,3.63
2022-11-05T00:58:05.011Z,3.40
2022-11-05T01:00:34.910Z,3.90
2022-11-05T01:03:09.311Z,3.33
2022-11-05T01:05:41.690Z,3.03
2022-11-05T01:08:10.783Z,3.10
2022-11-05T01:10:42.246Z,3.23
2022-11-05T01:13:13.197Z,3.03
2022-11-05T01:15:42.112Z,2.93
2022-11-05T01:18:12.414Z,2.63
2022-11-05T01:20:40.983Z,2.90
2022-11-05T01:23:13.532Z,3.20
2022-11-05T01:25:42.409Z,3.50
2022-11-05T01:28:11.705Z,3.37
2022-11-05T01:30:40.597Z,3.43
2022-11-05T01:33:09.319Z,3.50
2022-11-05T01:35:40.323Z,3.83
2022-11-05T01:38:08.736Z,3.93
2022-11-05T01:40:37.261Z,2.83
2022-11-05T01:43:10.864Z,2.30
2022-11-05T01:45:39.573Z,3.37
2022-11-05T01:48:13.626Z,3.03
2022-11-05T01:50:47.419Z,3.53
2022-11-05T01:53:28.028Z,4.43
2022-11-05T01:55:59.814Z,3.50
2022-11-05T01:58:32.816Z,3.17
2022-11-05T02:01:01.515Z,3.53
2022-11-05T02:03:30.578Z,3.67
2022-11-05T02:06:02.167Z,3.90
2022-11-05T02:08:45.966Z,3.40
2022-11-05T02:11:18.103Z,2.90
2022-11-05T02:13:47.824Z,3.23
2022-11-05T02:16:29.822Z,3.20
2022-11-05T02:19:07.501Z,3.80
2022-11-05T02:22:01.289Z,3.67
2022-11-05T02:24:55.481Z,3.67
2022-11-05T02:27:53.669Z,3.40
2022-11-05T02:30:41.847Z,3.03
2022-11-05T02:33:29.371Z,3.80
2022-11-05T02:36:10.128Z,3.77
2022-11-05T02:38:43.794Z,4.10
2022-11-05T02:41:23.639Z,4.10
2022-11-05T02:44:05.275Z,4.07
2022-11-05T02:46:45.826Z,4.10
2022-11-05T02:49:25.960Z,3.87
2022-11-05T02:51:59.166Z,4.30
2022-11-05T02:54:34.144Z,4.27
2022-11-05T02:57:04.730Z,4.83
2022-11-05T02:59:33.267Z,4.53
2022-11-05T03:02:05.099Z,5.37
2022-11-05T03:04:33.756Z,4.63
2022-11-05T03:07:22.241Z,4.47
2022-11-05T03:10:33.634Z,5.37
2022-11-05T03:13:12.311Z,5.07
2022-11-05T03:15:51.316Z,5.27
2022-11-05T03:18:28.009Z,5.20
2022-11-05T03:21:01.979Z,5.40
2022-11-05T03:23:34.914Z,6.17
2022-11-05T03:26:09.208Z,5.23
2022-11-05T03:28:42.460Z,5.10
2022-11-05T03:31:14.387Z,5.33
2022-11-05T03:33:46.605Z,6.03
2022-11-05T03:36:20.728Z,5.77
2022-11-05T03:38:52.959Z,5.93
2022-11-05T03:41:23.975Z,5.60
2022-11-05T03:43:56.533Z,6.00
2022-11-05T03:46:30.038Z,6.03
2022-11-05T03:49:03.049Z,5.83
2022-11-05T03:51:42.671Z,6.30
2022-11-05T03:54:12.066Z,6.07
2022-11-05T03:56:47.213Z,6.33
2022-11-05T03:59:16.322Z,5.53
2022-11-05T04:01:45.637Z,6.80
2022-11-05T04:04:15.939Z,5.73
2022-11-05T04:07:01.631Z,6.20
2022-11-05T04:09:47.421Z,6.43
2022-11-05T04:12:41.807Z,6.90
2022-11-05T04:15:10.766Z,6.33
2022-11-05T04:17:38.205Z,7.60
2022-11-05T04:20:26.454Z,5.67
2022-11-05T04:23:17.982Z,6.27
2022-11-05T04:25:46.756Z,6.03
2022-11-05T04:28:16.269Z,5.87
2022-11-05T04:30:44.300Z,7.00
2022-11-05T04:33:14.407Z,7.87
2022-11-05T04:35:46.884Z,6.87
2022-11-05T04:38:16.779Z,7.33
2022-11-05T04:40:46.368Z,7.17
2022-11-05T04:43:16.931Z,7.70
2022-11-05T04:45:46.044Z,6.33
2022-11-05T04:48:14.716Z,6.30
2022-11-05T04:50:44.462Z,6.50
2022-11-05T04:53:13.302Z,6.27
2022-11-05T04:55:41.991Z,5.63
2022-11-05T04:58:10.758Z,6.13
2022-11-05T05:00:39.240Z,5.77
2022-11-05T05:03:08.025Z,5.63
2022-11-05T05:05:36.642Z,4.87
2022-11-05T05:08:06.839Z,5.70
2022-11-05T05:10:35.293Z,5.00
2022-11-05T05:13:03.743Z,5.40
2022-11-05T05:15:32.598Z,4.83
2022-11-05T05:18:01.144Z,4.80
2022-11-05T05:20:46.983Z,5.20
2022-11-05T05:23:16.783Z,5.33
2022-11-05T05:25:45.161Z,4.60
2022-11-05T05:28:13.673Z,5.13
2022-11-05T05:30:42.105Z,4.03
2022-11-05T05:33:10.967Z,4.50
2022-11-05T05:35:39.582Z,4.30
2022-11-05T05:38:08.003Z,4.20
2022-11-05T05:40:37.754Z,5.00
2022-11-05T05:43:06.183Z,4.13
2022-11-05T05:45:36.721Z,4.10
2022-11-05T05:48:05.574Z,4.20
2022-11-05T05:50:34.021Z,3.77
2022-11-05T05:53:09.024Z,4.23
2022-11-05T05:55:39.029Z,3.93
2022-11-05T05:58:07.478Z,3.93
2022-11-05T06:00:36.082Z,4.57
2022-11-05T06:03:06.297Z,4.50
2022-11-05T06:05:34.877Z,4.50
2022-11-05T06:08:03.351Z,4.60
2022-11-05T06:10:31.879Z,4.87
2022-11-05T06:13:01.822Z,5.70
2022-11-05T06:15:35.702Z,5.67
2022-11-05T06:18:04.724Z,5.33
2022-11-05T06:20:33.213Z,5.20
2022-11-05T06:23:01.795Z,5.30
2022-11-05T06:25:30.297Z,4.83
2022-11-05T06:27:58.752Z,5.10
2022-11-05T06:30:28.699Z,5.33
2022-11-05T06:32:57.202Z,5.70
2022-11-05T06:35:25.744Z,5.40
2022-11-05T06:37:54.214Z,5.37
2022-11-05T06:40:22.707Z,5.43
2022-11-05T06:42:53.489Z,5.77
2022-11-05T06:45:22.157Z,6.80
2022-11-05T06:47:58.017Z,6.63
2022-11-05T06:50:28.138Z,5.80
2022-11-05T06:52:57.265Z,5.80
2022-11-05T06:55:26.473Z,6.20
2022-11-05T06:57:55.120Z,6.03
2022-11-05T07:00:24.441Z,5.93
2022-11-05T07:02:52.914Z,6.80
2022-11-05T07:05:23.527Z,5.40
2022-11-05T07:07:52.183Z,5.73
2022-11-05T07:10:20.935Z,6.23
2022-11-05T07:12:49.400Z,5.87
2022-11-05T07:15:18.035Z,6.97
2022-11-05T07:17:46.574Z,6.07
2022-11-05T07:20:15.132Z,7.70
2022-11-05T07:22:45.300Z,6.13
2022-11-05T07:25:13.758Z,7.13
2022-11-05T07:27:42.287Z,6.63
2022-11-05T07:30:11.857Z,7.23
2022-11-05T07:32:41.162Z,5.83
2022-11-05T07:35:11.049Z,6.07
2022-11-05T07:37:51.177Z,6.23
2022-11-05T07:40:20.920Z,6.67
2022-11-05T07:42:51.044Z,7.53
2022-11-05T07:45:22.469Z,7.50
2022-11-05T07:47:52.956Z,6.60
2022-11-05T07:50:23.988Z,6.00
2022-11-05T07:52:53.783Z,8.23
2022-11-05T07:55:22.514Z,7.60
2022-11-05T07:57:52.050Z,6.57
2022-11-05T08:00:21.775Z,6.13
2022-11-05T08:03:06.837Z,6.47
2022-11-05T08:05:40.256Z,6.97
2022-11-05T08:08:10.943Z,7.40
2022-11-05T08:10:39.742Z,7.30
2022-11-05T08:13:09.058Z,7.03
2022-11-05T08:15:37.760Z,7.83
2022-11-05T08:18:08.333Z,7.23
2022-11-05T08:20:37.063Z,7.50
2022-11-05T08:23:05.691Z,7.10
2022-11-05T08:25:35.744Z,7.60
2022-11-05T08:28:07.450Z,7.43
2022-11-05T08:30:36.497Z,6.67
2022-11-05T08:33:07.575Z,7.63
2022-11-05T08:35:37.557Z,6.60
2022-11-05T08:38:08.952Z,6.93
2022-11-05T08:40:38.981Z,6.47
2022-11-05T08:43:09.914Z,7.37
2022-11-05T08:45:39.263Z,7.33
2022-11-05T08:48:09.292Z,6.57
2022-11-05T08:50:38.486Z,6.23
2022-11-05T08:53:07.258Z,7.00
2022-11-05T08:55:35.742Z,7.17
2022-11-05T08:58:10.665Z,6.67
2022-11-05T09:00:40.107Z,6.60
2022-11-05T09:03:10.524Z,7.63
2022-11-05T09:05:41.416Z,7.03
2022-11-05T09:08:12.089Z,7.20
2022-11-05T09:10:41.229Z,5.87
2022-11-05T09:13:17.823Z,5.70
2022-11-05T09:15:47.235Z,7.03
2022-11-05T09:18:16.174Z,6.23
2022-11-05T09:20:45.014Z,5.93
2022-11-05T09:23:15.492Z,5.57
2022-11-05T09:25:44.545Z,7.40
2022-11-05T09:28:17.451Z,6.10
2022-11-05T09:30:47.853Z,6.17
2022-11-05T09:33:17.344Z,6.33
2022-11-05T09:35:46.868Z,5.43
2022-11-05T09:38:15.888Z,5.50
2022-11-05T09:40:50.135Z,5.93
2022-11-05T09:43:28.798Z,5.87
2022-11-05T09:46:03.939Z,6.03
2022-11-05T09:48:35.528Z,5.50
2022-11-05T09:51:06.014Z,5.70
2022-11-05T09:53:39.297Z,5.30
2022-11-05T09:56:18.915Z,6.03
2022-11-05T09:58:51.634Z,5.43
2022-11-05T10:01:24.911Z,4.73
2022-11-05T10:03:56.907Z,5.27
2022-11-05T10:06:27.441Z,5.20
2022-11-05T10:09:03.141Z,4.70
2022-11-05T10:11:37.738Z,4.43
2022-11-05T10:14:15.933Z,4.40
2022-11-05T10:16:49.780Z,3.90
2022-11-05T10:19:24.296Z,4.20
2022-11-05T10:22:12.233Z,3.47
2022-11-05T10:24:43.710Z,5.40
2022-11-05T10:27:17.475Z,3.03
2022-11-05T10:29:47.978Z,4.07
2022-11-05T10:32:26.578Z,3.97
2022-11-05T10:34:58.479Z,3.60
2022-11-05T10:37:28.172Z,3.60
2022-11-05T10:39:57.084Z,3.57
2022-11-05T10:42:45.521Z,3.60
2022-11-05T10:45:24.478Z,3.07
2022-11-05T10:48:03.744Z,3.60
2022-11-05T10:50:32.454Z,3.30
2022-11-05T10:53:04.827Z,3.50
2022-11-05T10:55:36.581Z,3.40
2022-11-05T10:58:20.237Z,3.33
2022-11-05T11:01:07.626Z,3.90
2022-11-05T11:03:41.154Z,4.07
2022-11-05T11:06:21.379Z,3.97
2022-11-05T11:08:51.317Z,4.70
2022-11-05T11:11:32.616Z,4.43
2022-11-05T11:14:04.407Z,5.30
2022-11-05T11:16:38.770Z,4.87
2022-11-05T11:19:27.587Z,4.40
2022-11-05T11:22:17.668Z,4.23
2022-11-05T11:24:49.337Z,3.50
2022-11-05T11:27:20.921Z,3.67
2022-11-05T11:29:53.122Z,4.07
2022-11-05T11:32:26.038Z,3.87
2022-11-05T11:34:57.208Z,3.60
2022-11-05T11:37:28.839Z,4.27
2022-11-05T11:40:00.323Z,4.30
2022-11-05T11:42:31.708Z,3.43
2022-11-05T11:45:04.879Z,3.67
2022-11-05T11:47:35.174Z,3.77
2022-11-05T11:50:03.932Z,3.73
2022-11-05T11:52:34.838Z,3.27
2022-11-05T11:55:20.633Z,3.20
2022-11-05T11:57:51.725Z,3.57
2022-11-05T12:00:25.910Z,3.43
2022-11-05T12:03:21.173Z,4.30
2022-11-05T12:05:55.179Z,4.10
2022-11-05T12:08:58.188Z,7.80
2022-11-05T12:11:34.581Z,6.33
2022-11-05T12:14:05.511Z,5.87
2022-11-05T12:17:12.806Z,4.17
2022-11-05T12:20:05.802Z,4.83
2022-11-05T12:22:56.005Z,4.50
2022-11-05T12:25:29.193Z,4.13
2022-11-05T12:28:11.405Z,5.40
2022-11-05T12:30:49.732Z,4.10
2022-11-05T12:33:26.938Z,4.10
2022-11-05T12:36:07.473Z,4.27
2022-11-05T12:39:04.281Z,4.30
2022-11-05T12:41:39.673Z,3.57
2022-11-05T12:44:24.269Z,4.03
2022-11-05T12:47:06.375Z,3.10
2022-11-05T12:49:57.614Z,3.43
2022-11-05T12:52:46.998Z,2.80
2022-11-05T12:55:18.773Z,2.67
2022-11-05T12:57:50.186Z,2.77
2022-11-05T13:00:21.455Z,2.00
2022-11-05T13:02:55.778Z,2.93
2022-11-05T13:05:34.389Z,3.77
2022-11-05T13:08:07.897Z,4.37
2022-11-05T13:10:41.931Z,3.70
2022-11-05T13:13:17.231Z,3.57
2022-11-05T13:15:51.952Z,11.97
2022-11-05T13:18:25.362Z,3.57
2022-11-05T13:20:56.378Z,3.80
2022-11-05T13:23:32.291Z,3.77
2022-11-05T13:26:06.593Z,3.30
2022-11-05T13:28:41.456Z,3.37
2022-11-05T13:31:14.501Z,4.57
2022-11-05T13:33:46.526Z,3.17
2022-11-05T13:36:32.157Z,3.73
2022-11-05T13:39:09.407Z,3.43
2022-11-05T13:41:54.310Z,4.37
2022-11-05T13:44:56.801Z,3.57
2022-11-05T13:47:50.138Z,3.83
2022-11-05T13:50:52.678Z,3.30
2022-11-05T13:53:59.944Z,3.27
2022-11-05T13:56:46.039Z,3.27
2022-11-05T13:59:39.862Z,3.27
2022-11-05T14:02:16.875Z,3.63
2022-11-05T14:04:48.245Z,3.87
2022-11-05T14:07:21.407Z,3.90
2022-11-05T14:09:56.173Z,3.57
2022-11-05T14:12:29.562Z,3.10
2022-11-05T14:15:04.267Z,4.00
2022-11-05T14:17:36.523Z,3.50
2022-11-05T14:20:26.557Z,4.43
2022-11-05T14:23:15.774Z,4.20
2022-11-05T14:26:14.015Z,4.63
2022-11-05T14:28:47.574Z,4.63
2022-11-05T14:32:07.759Z,4.07
2022-11-05T14:34:45.275Z,6.13
2022-11-05T14:37:32.382Z,3.80
2022-11-05T14:40:36.206Z,3.63
2022-11-05T14:43:07.124Z,4.03
2022-11-05T14:45:39.546Z,3.60
2022-11-05T14:48:25.321Z,5.50
2022-11-05T14:50:53.943Z,4.07
2022-11-05T14:53:31.353Z,3.77
2022-11-05T14:56:05.607Z,4.87
2022-11-05T14:58:38.563Z,3.73
2022-11-05T15:01:10.718Z,3.50
2022-11-05T15:04:19.150Z,3.17
2022-11-05T15:07:25.982Z,3.67
2022-11-05T15:09:59.246Z,3.20
2022-11-05T15:12:35.809Z,3.53
2022-11-05T15:15:21.480Z,3.73
2022-11-05T15:18:02.638Z,4.23
2022-11-05T15:20:47.595Z,3.60
2022-11-05T15:23:18.821Z,3.10
2022-11-05T15:25:53.644Z,3.53
2022-11-05T15:28:28.562Z,3.50
2022-11-05T15:31:02.441Z,4.87
2022-11-05T15:33:33.073Z,5.37
2022-11-05T15:36:11.276Z,5.07
2022-11-05T15:38:56.576Z,4.53
2022-11-05T15:41:34.451Z,3.87
2022-11-05T15:44:03.241Z,4.63
2022-11-05T15:46:31.702Z,6.77
2022-11-05T15:49:07.028Z,3.77
2022-11-05T15:51:36.138Z,5.17
2022-11-05T15:54:29.039Z,10.67
2022-11-05T15:56:57.535Z,7.80
2022-11-05T15:59:27.875Z,6.40
2022-11-05T16:02:01.852Z,4.77
2022-11-05T16:04:34.083Z,4.97
2022-11-05T16:07:09.550Z,4.13
2022-11-05T16:09:40.168Z,3.60
2022-11-05T16:12:24.938Z,3.60
2022-11-05T16:15:03.811Z,4.93
2022-11-05T16:17:34.761Z,4.23
2022-11-05T16:20:18.688Z,4.47
2022-11-05T16:22:47.983Z,3.80
2022-11-05T16:25:28.770Z,4.67
2022-11-05T16:27:58.009Z,4.47
2022-11-05T16:30:26.757Z,4.10
2022-11-05T16:32:55.739Z,4.27
2022-11-05T16:35:26.438Z,5.63
2022-11-05T16:37:54.997Z,4.70
2022-11-05T16:40:25.149Z,4.77
2022-11-05T16:42:54.716Z,4.33
2022-11-05T16:45:25.277Z,4.70
2022-11-05T16:47:53.742Z,4.20
2022-11-05T16:50:27.085Z,4.13
2022-11-05T16:52:55.530Z,4.47
2022-11-05T16:55:24.137Z,6.03
2022-11-05T16:57:55.033Z,4.23
2022-11-05T17:00:24.670Z,6.03
2022-11-05T17:02:53.675Z,7.10
2022-11-05T17:05:26.153Z,6.37
2022-11-05T17:07:55.255Z,5.93
2022-11-05T17:10:26.202Z,4.27
2022-11-05T17:12:54.926Z,6.43
2022-11-05T17:15:25.799Z,4.60
2022-11-05T17:17:55.558Z,6.87
2022-11-05T17:20:39.560Z,4.50
2022-11-05T17:23:10.522Z,6.90
2022-11-05T17:25:39.509Z,4.80
2022-11-05T17:28:09.080Z,5.27
2022-11-05T17:30:41.210Z,5.27
2022-11-05T17:33:11.037Z,6.77
2022-11-05T17:35:41.539Z,4.83
2022-11-05T17:38:10.213Z,3.77
2022-11-05T17:40:39.208Z,4.27
2022-11-05T17:43:07.746Z,4.07
2022-11-05T17:45:41.447Z,5.70
2022-11-05T17:48:10.507Z,5.27
2022-11-05T17:50:42.925Z,5.47
2022-11-05T17:53:12.199Z,6.47
2022-11-05T17:55:42.412Z,5.20
2022-11-05T17:58:11.016Z,4.40
2022-11-05T18:00:40.450Z,6.43
2022-11-05T18:03:10.220Z,6.40
2022-11-05T18:05:39.974Z,6.80
2022-11-05T18:08:10.243Z,5.80
2022-11-05T18:10:40.587Z,4.60
2022-11-05T18:13:09.219Z,4.27
2022-11-05T18:15:40.951Z,5.07
2022-11-05T18:18:09.738Z,4.03
2022-11-05T18:20:38.344Z,4.60
2022-11-05T18:23:06.978Z,5.20
2022-11-05T18:25:37.008Z,5.20
2022-11-05T18:28:05.859Z,4.53
2022-11-05T18:30:34.705Z,4.80
2022-11-05T18:33:03.133Z,4.90
2022-11-05T18:35:31.636Z,3.90
2022-11-05T18:38:00.104Z,5.03
2022-11-05T18:40:28.656Z,5.30
2022-11-05T18:42:58.540Z,8.83
2022-11-05T18:45:29.772Z,7.70
2022-11-05T18:47:59.808Z,5.57
2022-11-05T18:50:28.878Z,4.67
2022-11-05T18:52:57.582Z,3.87
2022-11-05T18:55:26.212Z,4.37
2022-11-05T18:57:54.603Z,4.27
2022-11-05T19:00:24.462Z,5.17
2022-11-05T19:02:53.008Z,3.87
2022-11-05T19:05:29.034Z,4.20
2022-11-05T19:07:58.527Z,4.63
2022-11-05T19:10:27.362Z,5.23
2022-11-05T19:12:55.824Z,5.20
2022-11-05T19:15:25.693Z,4.73
2022-11-05T19:17:54.171Z,5.77
2022-11-05T19:20:22.610Z,7.90
2022-11-05T19:22:51.039Z,10.93
2022-11-05T19:25:19.593Z,4.50
2022-11-05T19:27:47.979Z,4.60
2022-11-05T19:30:16.645Z,4.00
2022-11-05T19:32:46.380Z,4.47
2022-11-05T19:35:14.824Z,4.57
2022-11-05T19:37:43.421Z,4.23
2022-11-05T19:40:13.343Z,4.27
2022-11-05T19:42:41.835Z,4.20
2022-11-05T19:45:38.144Z,4.37
2022-11-05T19:48:01.170Z,5.30
2022-11-05T19:50:29.668Z,4.50
2022-11-05T19:52:58.070Z,4.60
2022-11-05T19:55:26.731Z,6.00
2022-11-05T19:57:55.185Z,4.97
2022-11-05T20:00:23.782Z,5.37
2022-11-05T20:02:52.316Z,4.90
2022-11-05T20:05:22.310Z,4.30
2022-11-05T20:07:53.062Z,4.67
2022-11-05T20:10:22.260Z,4.73
2022-11-05T20:12:50.767Z,4.50
2022-11-05T20:15:19.843Z,4.97
2022-11-05T20:17:52.023Z,5.20
2022-11-05T20:20:22.256Z,3.87
2022-11-05T20:22:52.739Z,4.10
2022-11-05T20:25:21.183Z,4.20
2022-11-05T20:27:49.623Z,4.53
2022-11-05T20:30:18.945Z,4.43
2022-11-05T20:32:47.366Z,4.90
2022-11-05T20:35:15.831Z,4.83
2022-11-05T20:37:48.569Z,3.90
2022-11-05T20:40:21.710Z,3.87
2022-11-05T20:42:50.139Z,4.60
2022-11-05T20:45:18.611Z,3.73
2022-11-05T20:47:47.025Z,4.13
2022-11-05T20:50:15.547Z,4.37
2022-11-05T20:52:45.355Z,4.10
2022-11-05T20:55:13.783Z,4.30
2022-11-05T20:57:42.211Z,3.80
2022-11-05T21:00:11.784Z,4.37
2022-11-05T21:02:41.801Z,4.07
2022-11-05T21:05:10.700Z,4.37
2022-11-05T21:07:39.072Z,4.17
2022-11-05T21:10:09.303Z,4.60
2022-11-05T21:12:37.687Z,3.80
2022-11-05T21:15:07.205Z,4.67
2022-11-05T21:17:36.381Z,4.10
2022-11-05T21:20:06.015Z,4.63
2022-11-05T21:22:34.458Z,4.60
2022-11-05T21:25:02.896Z,4.20
2022-11-05T21:27:32.654Z,4.23
2022-11-05T21:30:01.047Z,4.90
2022-11-05T21:32:29.486Z,4.13
2022-11-05T21:34:57.953Z,4.07
2022-11-05T21:37:26.444Z,4.30
2022-11-05T21:39:55.259Z,4.57
2022-11-05T21:42:23.710Z,4.50
2022-11-05T21:44:59.076Z,3.97
2022-11-05T21:47:29.001Z,4.03
2022-11-05T21:49:57.672Z,4.50
2022-11-05T21:52:43.581Z,4.27
2022-11-05T21:55:31.112Z,5.47
2022-11-05T21:58:21.030Z,4.47
2022-11-05T22:00:50.881Z,4.50
2022-11-05T22:03:19.383Z,4.17
2022-11-05T22:05:47.792Z,3.40
2022-11-05T22:08:16.201Z,3.77
2022-11-05T22:10:44.686Z,3.50
2022-11-05T22:13:13.150Z,3.90
2022-11-05T22:15:41.589Z,4.17
2022-11-05T22:18:11.575Z,4.40
2022-11-05T22:20:40.445Z,4.50
2022-11-05T22:23:11.426Z,3.43
2022-11-05T22:25:40.065Z,3.70
2022-11-05T22:28:08.564Z,4.40
2022-11-05T22:30:37.075Z,4.50
2022-11-05T22:33:05.618Z,4.93
2022-11-05T22:35:35.373Z,3.47
2022-11-05T22:38:03.767Z,3.50
2022-11-05T22:40:32.194Z,3.83
2022-11-05T22:43:00.628Z,4.03
2022-11-05T22:45:29.038Z,3.93
2022-11-05T22:47:57.486Z,3.07
2022-11-05T22:50:25.956Z,3.90
2022-11-05T22:52:55.803Z,3.93
2022-11-05T22:55:24.391Z,3.63
2022-11-05T22:57:52.874Z,3.57
2022-11-05T23:00:22.621Z,3.90
2022-11-05T23:02:52.173Z,4.20
2022-11-05T23:05:20.801Z,3.67
2022-11-05T23:08:06.534Z,3.23
2022-11-05T23:10:56.336Z,3.50
2022-11-05T23:13:24.874Z,3.43
2022-11-05T23:16:10.646Z,3.33
2022-11-05T23:18:56.654Z,3.70
2022-11-05T23:21:42.674Z,3.93
2022-11-05T23:24:13.231Z,4.10
2022-11-05T23:26:51.795Z,3.90
2022-11-05T23:29:21.755Z,3.83
2022-11-05T23:32:08.022Z,3.97
2022-11-05T23:34:36.549Z,3.70
2022-11-05T23:37:22.833Z,4.23
2022-11-05T23:39:51.437Z,3.50
2022-11-05T23:42:39.038Z,3.70
2022-11-05T23:45:25.744Z,3.40
2022-11-05T23:48:12.187Z,3.67
2022-11-05T23:50:41.617Z,3.30
2022-11-05T23:53:10.982Z,3.87
2022-11-05T23:55:39.591Z,4.27
2022-11-05T23:58:10.928Z,2.97
